sensor_id;sensor_type;location;lat;lon;timestamp;temperature;humidity
5476;DHT22;2760;50.000;9.194;2023-08-31T00:01:05;15.80;99.90
5476;DHT22;2760;50.000;9.194;2023-08-31T00:03:33;15.80;99.90
5476;DHT22;2760;50.000;9.194;2023-08-31T00:06:02;15.90;99.90
5476;DHT22;2760;50.000;9.194;2023-08-31T00:08:29;16.70;99.90
5476;DHT22;2760;50.000;9.194;2023-08-31T00:10:56;16.10;99.90
5476;DHT22;2760;50.000;9.194;2023-08-31T00:13:24;16.30;99.90
5476;DHT22;2760;50.000;9.194;2023-08-31T00:15:54;16.20;99.90
5476;DHT22;2760;50.000;9.194;2023-08-31T00:18:22;16.30;99.90
5476;DHT22;2760;50.000;9.194;2023-08-31T00:20:51;16.20;99.90
5476;DHT22;2760;50.000;9.194;2023-08-31T00:23:18;16.20;99.90
5476;DHT22;2760;50.000;9.194;2023-08-31T00:25:46;16.10;99.90
5476;DHT22;2760;50.000;9.194;2023-08-31T00:28:13;16.20;99.90
5476;DHT22;2760;50.000;9.194;2023-08-31T00:30:41;15.90;99.90
5476;DHT22;2760;50.000;9.194;2023-08-31T00:33:10;16.00;99.90
5476;DHT22;2760;50.000;9.194;2023-08-31T00:35:37;16.10;99.90
5476;DHT22;2760;50.000;9.194;2023-08-31T00:38:11;16.10;99.90
5476;DHT22;2760;50.000;9.194;2023-08-31T00:40:42;15.90;99.90
5476;DHT22;2760;50.000;9.194;2023-08-31T00:43:10;17.30;99.90
5476;DHT22;2760;50.000;9.194;2023-08-31T00:45:37;16.10;99.90
5476;DHT22;2760;50.000;9.194;2023-08-31T00:48:06;15.90;99.90
5476;DHT22;2760;50.000;9.194;2023-08-31T00:50:34;15.90;99.90
5476;DHT22;2760;50.000;9.194;2023-08-31T00:53:01;15.90;99.90
5476;DHT22;2760;50.000;9.194;2023-08-31T00:55:33;16.20;99.90
5476;DHT22;2760;50.000;9.194;2023-08-31T00:58:04;16.10;99.90
5476;DHT22;2760;50.000;9.194;2023-08-31T01:00:40;15.80;99.90
5476;DHT22;2760;50.000;9.194;2023-08-31T01:03:13;15.70;99.90
5476;DHT22;2760;50.000;9.194;2023-08-31T01:05:49;16.00;99.90
5476;DHT22;2760;50.000;9.194;2023-08-31T01:08:26;15.80;99.90
5476;DHT22;2760;50.000;9.194;2023-08-31T01:11:06;16.50;99.90
5476;DHT22;2760;50.000;9.194;2023-08-31T01:13:35;16.00;99.90
5476;DHT22;2760;50.000;9.194;2023-08-31T01:16:06;16.00;99.90
5476;DHT22;2760;50.000;9.194;2023-08-31T01:18:34;15.80;99.90
5476;DHT22;2760;50.000;9.194;2023-08-31T01:21:10;15.80;99.90
5476;DHT22;2760;50.000;9.194;2023-08-31T01:23:57;16.20;99.90
5476;DHT22;2760;50.000;9.194;2023-08-31T01:26:25;15.80;99.90
5476;DHT22;2760;50.000;9.194;2023-08-31T01:28:52;15.90;99.90
5476;DHT22;2760;50.000;9.194;2023-08-31T01:31:21;15.80;99.90
5476;DHT22;2760;50.000;9.194;2023-08-31T01:33:48;15.80;99.90
5476;DHT22;2760;50.000;9.194;2023-08-31T01:36:20;15.80;99.90
5476;DHT22;2760;50.000;9.194;2023-08-31T01:38:55;15.90;99.90
5476;DHT22;2760;50.000;9.194;2023-08-31T01:41:26;16.30;99.90
5476;DHT22;2760;50.000;9.194;2023-08-31T01:43:56;16.00;99.90
5476;DHT22;2760;50.000;9.194;2023-08-31T01:46:23;17.00;99.90
5476;DHT22;2760;50.000;9.194;2023-08-31T01:48:51;15.70;99.90
5476;DHT22;2760;50.000;9.194;2023-08-31T01:51:18;15.50;99.90
5476;DHT22;2760;50.000;9.194;2023-08-31T01:53:46;15.50;99.90
5476;DHT22;2760;50.000;9.194;2023-08-31T01:56:13;15.50;99.90
5476;DHT22;2760;50.000;9.194;2023-08-31T01:58:42;15.40;99.90
5476;DHT22;2760;50.000;9.194;2023-08-31T02:01:09;15.60;99.90
5476;DHT22;2760;50.000;9.194;2023-08-31T02:03:36;16.60;99.90
5476;DHT22;2760;50.000;9.194;2023-08-31T02:06:03;15.30;99.90
5476;DHT22;2760;50.000;9.194;2023-08-31T02:08:31;15.50;99.90
5476;DHT22;2760;50.000;9.194;2023-08-31T02:10:58;15.50;99.90
5476;DHT22;2760;50.000;9.194;2023-08-31T02:13:25;15.30;99.90
5476;DHT22;2760;50.000;9.194;2023-08-31T02:15:54;15.30;99.90
5476;DHT22;2760;50.000;9.194;2023-08-31T02:18:21;15.30;99.90
5476;DHT22;2760;50.000;9.194;2023-08-31T02:20:48;15.30;99.90
5476;DHT22;2760;50.000;9.194;2023-08-31T02:23:18;15.20;99.90
5476;DHT22;2760;50.000;9.194;2023-08-31T02:25:45;15.40;99.90
5476;DHT22;2760;50.000;9.194;2023-08-31T02:28:14;15.10;99.90
5476;DHT22;2760;50.000;9.194;2023-08-31T02:30:44;15.40;99.90
5476;DHT22;2760;50.000;9.194;2023-08-31T02:33:12;15.10;99.90
5476;DHT22;2760;50.000;9.194;2023-08-31T02:35:39;15.10;99.90
5476;DHT22;2760;50.000;9.194;2023-08-31T02:38:06;15.00;99.90
5476;DHT22;2760;50.000;9.194;2023-08-31T02:40:34;15.00;99.90
5476;DHT22;2760;50.000;9.194;2023-08-31T02:43:01;14.90;99.90
5476;DHT22;2760;50.000;9.194;2023-08-31T02:45:28;15.00;99.90
5476;DHT22;2760;50.000;9.194;2023-08-31T02:47:55;15.00;99.90
5476;DHT22;2760;50.000;9.194;2023-08-31T02:50:24;16.00;99.90
5476;DHT22;2760;50.000;9.194;2023-08-31T02:52:51;14.90;99.90
5476;DHT22;2760;50.000;9.194;2023-08-31T02:55:18;16.40;99.90
5476;DHT22;2760;50.000;9.194;2023-08-31T02:57:45;14.80;99.90
5476;DHT22;2760;50.000;9.194;2023-08-31T03:00:13;14.70;99.90
5476;DHT22;2760;50.000;9.194;2023-08-31T03:02:40;14.60;99.90
5476;DHT22;2760;50.000;9.194;2023-08-31T03:05:09;14.70;99.90
5476;DHT22;2760;50.000;9.194;2023-08-31T03:07:38;14.70;99.90
5476;DHT22;2760;50.000;9.194;2023-08-31T03:10:06;14.80;99.90
5476;DHT22;2760;50.000;9.194;2023-08-31T03:12:33;14.80;99.90
5476;DHT22;2760;50.000;9.194;2023-08-31T03:15:00;15.60;99.90
5476;DHT22;2760;50.000;9.194;2023-08-31T03:17:28;14.90;99.90
5476;DHT22;2760;50.000;9.194;2023-08-31T03:19:55;14.90;99.90
5476;DHT22;2760;50.000;9.194;2023-08-31T03:22:22;15.70;99.90
5476;DHT22;2760;50.000;9.194;2023-08-31T03:24:50;14.80;99.90
5476;DHT22;2760;50.000;9.194;2023-08-31T03:27:17;14.80;99.90
5476;DHT22;2760;50.000;9.194;2023-08-31T03:29:45;14.90;99.90
5476;DHT22;2760;50.000;9.194;2023-08-31T03:32:12;15.00;99.90
5476;DHT22;2760;50.000;9.194;2023-08-31T03:34:39;15.60;99.90
5476;DHT22;2760;50.000;9.194;2023-08-31T03:37:07;13.00;99.90
5476;DHT22;2760;50.000;9.194;2023-08-31T03:39:35;15.00;99.90
5476;DHT22;2760;50.000;9.194;2023-08-31T03:42:04;15.00;99.90
5476;DHT22;2760;50.000;9.194;2023-08-31T03:44:31;15.00;99.90
5476;DHT22;2760;50.000;9.194;2023-08-31T03:46:58;15.00;99.90
5476;DHT22;2760;50.000;9.194;2023-08-31T03:49:25;16.00;99.90
5476;DHT22;2760;50.000;9.194;2023-08-31T03:51:52;15.10;99.90
5476;DHT22;2760;50.000;9.194;2023-08-31T03:54:20;15.00;99.90
5476;DHT22;2760;50.000;9.194;2023-08-31T03:56:47;14.90;99.90
5476;DHT22;2760;50.000;9.194;2023-08-31T03:59:16;14.90;99.90
5476;DHT22;2760;50.000;9.194;2023-08-31T04:01:44;15.00;99.90
5476;DHT22;2760;50.000;9.194;2023-08-31T04:04:12;14.90;99.90
5476;DHT22;2760;50.000;9.194;2023-08-31T04:06:43;14.90;99.90
5476;DHT22;2760;50.000;9.194;2023-08-31T04:09:10;14.90;99.90
5476;DHT22;2760;50.000;9.194;2023-08-31T04:11:38;14.90;99.90
5476;DHT22;2760;50.000;9.194;2023-08-31T04:14:05;15.00;99.90
5476;DHT22;2760;50.000;9.194;2023-08-31T04:16:33;15.00;99.90
5476;DHT22;2760;50.000;9.194;2023-08-31T04:19:00;15.20;99.90
5476;DHT22;2760;50.000;9.194;2023-08-31T04:21:27;15.10;99.90
5476;DHT22;2760;50.000;9.194;2023-08-31T04:23:54;15.10;99.90
5476;DHT22;2760;50.000;9.194;2023-08-31T04:26:22;15.20;99.90
5476;DHT22;2760;50.000;9.194;2023-08-31T04:28:49;15.00;99.90
5476;DHT22;2760;50.000;9.194;2023-08-31T04:31:17;14.90;99.90
5476;DHT22;2760;50.000;9.194;2023-08-31T04:33:48;16.20;99.90
5476;DHT22;2760;50.000;9.194;2023-08-31T04:36:19;16.10;99.90
5476;DHT22;2760;50.000;9.194;2023-08-31T04:38:46;15.00;99.90
5476;DHT22;2760;50.000;9.194;2023-08-31T04:41:14;14.00;99.90
5476;DHT22;2760;50.000;9.194;2023-08-31T04:43:44;15.00;99.90
5476;DHT22;2760;50.000;9.194;2023-08-31T04:46:13;14.80;99.90
5476;DHT22;2760;50.000;9.194;2023-08-31T04:48:40;15.00;99.90
5476;DHT22;2760;50.000;9.194;2023-08-31T04:51:27;15.00;99.90
5476;DHT22;2760;50.000;9.194;2023-08-31T04:53:54;15.10;99.90
5476;DHT22;2760;50.000;9.194;2023-08-31T04:56:21;15.30;99.90
5476;DHT22;2760;50.000;9.194;2023-08-31T04:58:51;16.00;99.90
5476;DHT22;2760;50.000;9.194;2023-08-31T05:01:19;15.00;99.90
5476;DHT22;2760;50.000;9.194;2023-08-31T05:03:46;14.20;99.90
5476;DHT22;2760;50.000;9.194;2023-08-31T05:06:14;16.60;99.90
5476;DHT22;2760;50.000;9.194;2023-08-31T05:08:41;15.10;99.90
5476;DHT22;2760;50.000;9.194;2023-08-31T05:11:07;15.10;99.90
5476;DHT22;2760;50.000;9.194;2023-08-31T05:13:34;16.30;99.90
5476;DHT22;2760;50.000;9.194;2023-08-31T05:16:03;15.10;99.90
5476;DHT22;2760;50.000;9.194;2023-08-31T05:18:30;14.90;99.90
5476;DHT22;2760;50.000;9.194;2023-08-31T05:20:57;14.80;99.90
5476;DHT22;2760;50.000;9.194;2023-08-31T05:23:28;14.80;99.90
5476;DHT22;2760;50.000;9.194;2023-08-31T05:25:55;14.80;99.90
5476;DHT22;2760;50.000;9.194;2023-08-31T05:28:23;14.90;99.90
5476;DHT22;2760;50.000;9.194;2023-08-31T05:30:53;15.10;99.90
5476;DHT22;2760;50.000;9.194;2023-08-31T05:33:20;15.80;99.90
5476;DHT22;2760;50.000;9.194;2023-08-31T05:35:48;15.10;99.90
5476;DHT22;2760;50.000;9.194;2023-08-31T05:38:15;15.10;99.90
5476;DHT22;2760;50.000;9.194;2023-08-31T05:40:43;16.70;99.90
5476;DHT22;2760;50.000;9.194;2023-08-31T05:43:12;15.10;99.90
5476;DHT22;2760;50.000;9.194;2023-08-31T05:45:38;15.10;99.90
5476;DHT22;2760;50.000;9.194;2023-08-31T05:48:05;16.50;99.90
5476;DHT22;2760;50.000;9.194;2023-08-31T05:50:32;15.30;99.90
5476;DHT22;2760;50.000;9.194;2023-08-31T05:52:59;15.40;99.90
5476;DHT22;2760;50.000;9.194;2023-08-31T05:55:26;15.40;99.90
5476;DHT22;2760;50.000;9.194;2023-08-31T05:57:54;15.50;99.90
5476;DHT22;2760;50.000;9.194;2023-08-31T06:00:22;15.40;99.90
5476;DHT22;2760;50.000;9.194;2023-08-31T06:02:49;15.50;99.90
5476;DHT22;2760;50.000;9.194;2023-08-31T06:05:16;15.80;99.90
5476;DHT22;2760;50.000;9.194;2023-08-31T06:07:43;15.90;99.90
5476;DHT22;2760;50.000;9.194;2023-08-31T06:10:47;16.00;99.90
5476;DHT22;2760;50.000;9.194;2023-08-31T06:13:16;16.30;99.90
5476;DHT22;2760;50.000;9.194;2023-08-31T06:15:43;16.30;99.90
5476;DHT22;2760;50.000;9.194;2023-08-31T06:18:11;16.70;99.90
5476;DHT22;2760;50.000;9.194;2023-08-31T06:20:38;16.80;99.90
5476;DHT22;2760;50.000;9.194;2023-08-31T06:23:05;16.70;99.90
5476;DHT22;2760;50.000;9.194;2023-08-31T06:29:02;17.20;99.90
5476;DHT22;2760;50.000;9.194;2023-08-31T06:31:30;16.90;99.90
5476;DHT22;2760;50.000;9.194;2023-08-31T06:33:57;16.50;99.90
5476;DHT22;2760;50.000;9.194;2023-08-31T06:36:25;17.60;99.90
5476;DHT22;2760;50.000;9.194;2023-08-31T06:38:52;17.80;99.90
5476;DHT22;2760;50.000;9.194;2023-08-31T06:41:19;18.00;99.90
5476;DHT22;2760;50.000;9.194;2023-08-31T06:43:47;18.10;99.90
5476;DHT22;2760;50.000;9.194;2023-08-31T06:46:16;17.60;99.90
5476;DHT22;2760;50.000;9.194;2023-08-31T06:48:43;17.60;99.90
5476;DHT22;2760;50.000;9.194;2023-08-31T06:51:10;17.40;99.90
5476;DHT22;2760;50.000;9.194;2023-08-31T06:53:37;17.60;99.90
5476;DHT22;2760;50.000;9.194;2023-08-31T06:56:04;17.50;99.90
5476;DHT22;2760;50.000;9.194;2023-08-31T06:58:31;17.30;99.90
5476;DHT22;2760;50.000;9.194;2023-08-31T07:00:58;17.10;99.90
5476;DHT22;2760;50.000;9.194;2023-08-31T07:03:27;17.30;99.90
5476;DHT22;2760;50.000;9.194;2023-08-31T07:05:54;17.30;99.90
5476;DHT22;2760;50.000;9.194;2023-08-31T07:08:21;17.60;99.90
5476;DHT22;2760;50.000;9.194;2023-08-31T07:10:49;17.60;99.90
5476;DHT22;2760;50.000;9.194;2023-08-31T07:13:17;17.10;99.90
5476;DHT22;2760;50.000;9.194;2023-08-31T07:15:44;16.90;99.90
5476;DHT22;2760;50.000;9.194;2023-08-31T07:18:15;16.90;99.90
5476;DHT22;2760;50.000;9.194;2023-08-31T07:20:45;17.00;99.90
5476;DHT22;2760;50.000;9.194;2023-08-31T07:23:12;17.20;99.90
5476;DHT22;2760;50.000;9.194;2023-08-31T07:25:39;17.20;99.90
5476;DHT22;2760;50.000;9.194;2023-08-31T07:28:07;17.10;99.90
5476;DHT22;2760;50.000;9.194;2023-08-31T07:30:35;17.30;99.90
5476;DHT22;2760;50.000;9.194;2023-08-31T07:33:03;17.20;99.90
5476;DHT22;2760;50.000;9.194;2023-08-31T07:35:30;17.30;99.90
5476;DHT22;2760;50.000;9.194;2023-08-31T07:37:58;16.80;99.90
5476;DHT22;2760;50.000;9.194;2023-08-31T07:40:25;18.50;99.90
5476;DHT22;2760;50.000;9.194;2023-08-31T07:42:52;18.70;99.90
5476;DHT22;2760;50.000;9.194;2023-08-31T07:45:19;17.10;99.90
5476;DHT22;2760;50.000;9.194;2023-08-31T07:47:46;17.10;99.90
5476;DHT22;2760;50.000;9.194;2023-08-31T07:50:14;17.50;99.90
5476;DHT22;2760;50.000;9.194;2023-08-31T07:52:41;17.20;99.90
5476;DHT22;2760;50.000;9.194;2023-08-31T07:55:10;17.30;99.90
5476;DHT22;2760;50.000;9.194;2023-08-31T07:57:37;17.30;99.90
5476;DHT22;2760;50.000;9.194;2023-08-31T08:00:05;17.30;99.90
5476;DHT22;2760;50.000;9.194;2023-08-31T08:02:38;17.20;99.90
5476;DHT22;2760;50.000;9.194;2023-08-31T08:05:06;17.20;99.90
5476;DHT22;2760;50.000;9.194;2023-08-31T08:07:34;17.10;99.90
5476;DHT22;2760;50.000;9.194;2023-08-31T08:10:01;17.20;99.90
5476;DHT22;2760;50.000;9.194;2023-08-31T08:12:36;17.40;99.90
5476;DHT22;2760;50.000;9.194;2023-08-31T08:15:04;17.30;99.90
5476;DHT22;2760;50.000;9.194;2023-08-31T08:17:32;17.20;99.90
5476;DHT22;2760;50.000;9.194;2023-08-31T08:20:00;17.10;99.90
5476;DHT22;2760;50.000;9.194;2023-08-31T08:22:41;17.20;99.90
5476;DHT22;2760;50.000;9.194;2023-08-31T08:25:08;17.00;99.90
5476;DHT22;2760;50.000;9.194;2023-08-31T08:27:37;17.00;99.90
5476;DHT22;2760;50.000;9.194;2023-08-31T08:30:06;17.10;99.90
5476;DHT22;2760;50.000;9.194;2023-08-31T08:32:33;17.00;99.90
5476;DHT22;2760;50.000;9.194;2023-08-31T08:35:00;17.00;99.90
5476;DHT22;2760;50.000;9.194;2023-08-31T08:37:28;17.10;99.90
5476;DHT22;2760;50.000;9.194;2023-08-31T08:39:56;17.10;99.90
5476;DHT22;2760;50.000;9.194;2023-08-31T08:42:24;16.90;99.90
5476;DHT22;2760;50.000;9.194;2023-08-31T08:44:56;18.20;99.90
5476;DHT22;2760;50.000;9.194;2023-08-31T08:47:24;17.10;99.90
5476;DHT22;2760;50.000;9.194;2023-08-31T08:49:53;17.20;99.90
5476;DHT22;2760;50.000;9.194;2023-08-31T08:52:21;18.40;99.90
5476;DHT22;2760;50.000;9.194;2023-08-31T08:54:49;17.10;99.90
5476;DHT22;2760;50.000;9.194;2023-08-31T08:57:22;17.30;99.90
5476;DHT22;2760;50.000;9.194;2023-08-31T08:59:49;17.40;99.90
5476;DHT22;2760;50.000;9.194;2023-08-31T09:02:18;17.20;99.90
5476;DHT22;2760;50.000;9.194;2023-08-31T09:04:45;17.30;99.90
5476;DHT22;2760;50.000;9.194;2023-08-31T09:07:12;17.40;99.90
5476;DHT22;2760;50.000;9.194;2023-08-31T09:09:48;17.30;99.90
5476;DHT22;2760;50.000;9.194;2023-08-31T09:12:16;17.50;99.90
5476;DHT22;2760;50.000;9.194;2023-08-31T09:14:44;18.70;99.90
5476;DHT22;2760;50.000;9.194;2023-08-31T09:17:24;18.00;99.90
5476;DHT22;2760;50.000;9.194;2023-08-31T09:19:59;17.90;99.90
5476;DHT22;2760;50.000;9.194;2023-08-31T09:22:26;18.10;99.90
5476;DHT22;2760;50.000;9.194;2023-08-31T09:24:53;17.90;99.90
5476;DHT22;2760;50.000;9.194;2023-08-31T09:27:21;18.00;99.90
5476;DHT22;2760;50.000;9.194;2023-08-31T09:29:48;18.10;99.90
5476;DHT22;2760;50.000;9.194;2023-08-31T09:32:17;18.80;99.90
5476;DHT22;2760;50.000;9.194;2023-08-31T09:34:47;17.70;99.90
5476;DHT22;2760;50.000;9.194;2023-08-31T09:37:16;18.80;99.90
5476;DHT22;2760;50.000;9.194;2023-08-31T09:39:43;18.70;99.90
5476;DHT22;2760;50.000;9.194;2023-08-31T09:42:11;18.60;99.90
5476;DHT22;2760;50.000;9.194;2023-08-31T09:44:40;18.70;99.90
5476;DHT22;2760;50.000;9.194;2023-08-31T09:47:08;19.20;99.90
5476;DHT22;2760;50.000;9.194;2023-08-31T09:49:37;19.20;99.90
5476;DHT22;2760;50.000;9.194;2023-08-31T09:52:07;19.20;99.90
5476;DHT22;2760;50.000;9.194;2023-08-31T09:54:35;19.10;99.90
5476;DHT22;2760;50.000;9.194;2023-08-31T09:57:04;19.20;99.90
5476;DHT22;2760;50.000;9.194;2023-08-31T09:59:31;19.30;99.90
5476;DHT22;2760;50.000;9.194;2023-08-31T10:02:01;19.80;99.90
5476;DHT22;2760;50.000;9.194;2023-08-31T10:04:30;20.40;99.90
5476;DHT22;2760;50.000;9.194;2023-08-31T10:07:01;21.00;99.90
5476;DHT22;2760;50.000;9.194;2023-08-31T10:09:33;21.50;99.90
5476;DHT22;2760;50.000;9.194;2023-08-31T10:12:00;21.50;99.90
5476;DHT22;2760;50.000;9.194;2023-08-31T10:14:30;21.50;99.90
5476;DHT22;2760;50.000;9.194;2023-08-31T10:16:59;21.20;99.90
5476;DHT22;2760;50.000;9.194;2023-08-31T10:19:26;20.70;99.90
5476;DHT22;2760;50.000;9.194;2023-08-31T10:21:53;20.40;99.90
5476;DHT22;2760;50.000;9.194;2023-08-31T10:27:24;21.20;99.90
5476;DHT22;2760;50.000;9.194;2023-08-31T10:29:51;21.70;99.90
5476;DHT22;2760;50.000;9.194;2023-08-31T10:32:18;22.00;99.90
5476;DHT22;2760;50.000;9.194;2023-08-31T10:35:07;21.60;99.90
5476;DHT22;2760;50.000;9.194;2023-08-31T10:37:34;21.50;99.60
5476;DHT22;2760;50.000;9.194;2023-08-31T10:40:08;21.40;99.80
5476;DHT22;2760;50.000;9.194;2023-08-31T10:43:16;21.10;99.90
5476;DHT22;2760;50.000;9.194;2023-08-31T10:45:45;21.00;99.90
5476;DHT22;2760;50.000;9.194;2023-08-31T10:48:12;20.80;99.90
5476;DHT22;2760;50.000;9.194;2023-08-31T10:50:41;20.90;99.90
5476;DHT22;2760;50.000;9.194;2023-08-31T10:53:09;21.00;99.90
5476;DHT22;2760;50.000;9.194;2023-08-31T10:55:50;21.20;99.90
5476;DHT22;2760;50.000;9.194;2023-08-31T10:58:20;21.00;99.90
5476;DHT22;2760;50.000;9.194;2023-08-31T11:00:51;20.60;99.90
5476;DHT22;2760;50.000;9.194;2023-08-31T11:03:19;20.90;99.90
5476;DHT22;2760;50.000;9.194;2023-08-31T11:05:53;21.00;99.90
5476;DHT22;2760;50.000;9.194;2023-08-31T11:08:25;20.60;99.90
5476;DHT22;2760;50.000;9.194;2023-08-31T11:10:52;20.30;99.90
5476;DHT22;2760;50.000;9.194;2023-08-31T11:13:21;20.30;99.90
5476;DHT22;2760;50.000;9.194;2023-08-31T11:15:50;20.50;99.90
5476;DHT22;2760;50.000;9.194;2023-08-31T11:18:20;20.80;99.90
5476;DHT22;2760;50.000;9.194;2023-08-31T11:20:48;21.00;99.90
5476;DHT22;2760;50.000;9.194;2023-08-31T11:23:15;21.10;99.80
5476;DHT22;2760;50.000;9.194;2023-08-31T11:25:42;21.10;99.60
5476;DHT22;2760;50.000;9.194;2023-08-31T11:28:11;21.10;99.50
5476;DHT22;2760;50.000;9.194;2023-08-31T11:30:41;21.20;98.90
5476;DHT22;2760;50.000;9.194;2023-08-31T11:33:10;21.20;98.90
5476;DHT22;2760;50.000;9.194;2023-08-31T11:35:41;21.50;99.10
5476;DHT22;2760;50.000;9.194;2023-08-31T11:38:12;22.10;98.70
5476;DHT22;2760;50.000;9.194;2023-08-31T11:40:39;22.80;97.30
5476;DHT22;2760;50.000;9.194;2023-08-31T11:43:07;22.50;97.40
5476;DHT22;2760;50.000;9.194;2023-08-31T11:45:36;22.10;97.70
5476;DHT22;2760;50.000;9.194;2023-08-31T11:48:05;21.60;97.80
5476;DHT22;2760;50.000;9.194;2023-08-31T11:50:33;21.70;97.10
5476;DHT22;2760;50.000;9.194;2023-08-31T11:53:00;21.50;97.70
5476;DHT22;2760;50.000;9.194;2023-08-31T11:55:28;21.30;98.00
5476;DHT22;2760;50.000;9.194;2023-08-31T11:57:55;21.20;97.10
5476;DHT22;2760;50.000;9.194;2023-08-31T12:00:23;21.20;97.80
5476;DHT22;2760;50.000;9.194;2023-08-31T12:02:56;21.30;97.90
5476;DHT22;2760;50.000;9.194;2023-08-31T12:05:27;21.30;98.00
5476;DHT22;2760;50.000;9.194;2023-08-31T12:07:54;21.30;98.00
5476;DHT22;2760;50.000;9.194;2023-08-31T12:10:24;21.30;97.90
5476;DHT22;2760;50.000;9.194;2023-08-31T12:12:51;21.70;98.00
5476;DHT22;2760;50.000;9.194;2023-08-31T12:15:21;21.80;97.30
5476;DHT22;2760;50.000;9.194;2023-08-31T12:17:49;20.90;96.80
5476;DHT22;2760;50.000;9.194;2023-08-31T12:20:26;22.30;97.40
5476;DHT22;2760;50.000;9.194;2023-08-31T12:22:53;22.40;96.40
5476;DHT22;2760;50.000;9.194;2023-08-31T12:25:20;22.80;95.00
5476;DHT22;2760;50.000;9.194;2023-08-31T12:27:47;23.60;96.00
5476;DHT22;2760;50.000;9.194;2023-08-31T12:30:15;24.00;94.60
5476;DHT22;2760;50.000;9.194;2023-08-31T12:32:42;23.70;94.80
5476;DHT22;2760;50.000;9.194;2023-08-31T12:35:09;23.00;94.50
5476;DHT22;2760;50.000;9.194;2023-08-31T12:37:41;22.60;95.20
5476;DHT22;2760;50.000;9.194;2023-08-31T12:40:09;23.00;96.20
5476;DHT22;2760;50.000;9.194;2023-08-31T12:42:36;23.40;95.30
5476;DHT22;2760;50.000;9.194;2023-08-31T12:45:04;23.90;94.40
5476;DHT22;2760;50.000;9.194;2023-08-31T12:47:32;24.20;94.40
5476;DHT22;2760;50.000;9.194;2023-08-31T12:49:59;23.80;94.40
5476;DHT22;2760;50.000;9.194;2023-08-31T12:52:28;24.00;94.10
5476;DHT22;2760;50.000;9.194;2023-08-31T12:54:56;23.00;93.70
5476;DHT22;2760;50.000;9.194;2023-08-31T12:57:23;23.60;93.60
5476;DHT22;2760;50.000;9.194;2023-08-31T12:59:50;23.30;94.30
5476;DHT22;2760;50.000;9.194;2023-08-31T13:02:18;23.10;93.70
5476;DHT22;2760;50.000;9.194;2023-08-31T13:04:45;23.40;93.20
5476;DHT22;2760;50.000;9.194;2023-08-31T13:07:12;24.30;93.90
5476;DHT22;2760;50.000;9.194;2023-08-31T13:09:40;24.30;93.00
5476;DHT22;2760;50.000;9.194;2023-08-31T13:12:09;23.90;91.00
5476;DHT22;2760;50.000;9.194;2023-08-31T13:14:36;23.80;91.50
5476;DHT22;2760;50.000;9.194;2023-08-31T13:17:04;23.40;92.00
5476;DHT22;2760;50.000;9.194;2023-08-31T13:19:33;23.20;92.20
5476;DHT22;2760;50.000;9.194;2023-08-31T13:22:00;23.70;92.00
5476;DHT22;2760;50.000;9.194;2023-08-31T13:24:27;24.30;92.30
5476;DHT22;2760;50.000;9.194;2023-08-31T13:26:54;24.60;90.90
5476;DHT22;2760;50.000;9.194;2023-08-31T13:29:23;24.80;90.90
5476;DHT22;2760;50.000;9.194;2023-08-31T13:31:50;24.50;88.60
5476;DHT22;2760;50.000;9.194;2023-08-31T13:34:18;23.80;87.70
5476;DHT22;2760;50.000;9.194;2023-08-31T13:36:45;23.10;90.20
5476;DHT22;2760;50.000;9.194;2023-08-31T13:39:26;22.90;90.30
5476;DHT22;2760;50.000;9.194;2023-08-31T13:41:53;22.70;91.30
5476;DHT22;2760;50.000;9.194;2023-08-31T13:44:22;22.80;90.10
5476;DHT22;2760;50.000;9.194;2023-08-31T13:46:49;24.00;90.30
5476;DHT22;2760;50.000;9.194;2023-08-31T13:49:18;22.80;89.50
5476;DHT22;2760;50.000;9.194;2023-08-31T13:51:45;23.30;90.50
5476;DHT22;2760;50.000;9.194;2023-08-31T13:54:12;23.30;90.00
5476;DHT22;2760;50.000;9.194;2023-08-31T13:56:40;23.80;87.10
5476;DHT22;2760;50.000;9.194;2023-08-31T13:59:08;23.90;86.30
5476;DHT22;2760;50.000;9.194;2023-08-31T14:01:41;23.40;86.00
5476;DHT22;2760;50.000;9.194;2023-08-31T14:04:08;24.10;87.00
5476;DHT22;2760;50.000;9.194;2023-08-31T14:06:36;24.00;86.70
5476;DHT22;2760;50.000;9.194;2023-08-31T14:09:03;23.90;87.40
5476;DHT22;2760;50.000;9.194;2023-08-31T14:11:30;23.60;88.40
5476;DHT22;2760;50.000;9.194;2023-08-31T14:14:02;23.90;89.20
5476;DHT22;2760;50.000;9.194;2023-08-31T14:16:31;23.60;88.20
5476;DHT22;2760;50.000;9.194;2023-08-31T14:19:00;23.40;88.20
5476;DHT22;2760;50.000;9.194;2023-08-31T14:21:27;23.70;88.60
5476;DHT22;2760;50.000;9.194;2023-08-31T14:23:54;23.50;90.00
5476;DHT22;2760;50.000;9.194;2023-08-31T14:26:22;23.60;90.40
5476;DHT22;2760;50.000;9.194;2023-08-31T14:28:50;23.40;88.40
5476;DHT22;2760;50.000;9.194;2023-08-31T14:31:17;23.60;90.10
5476;DHT22;2760;50.000;9.194;2023-08-31T14:33:50;23.30;89.50
5476;DHT22;2760;50.000;9.194;2023-08-31T14:36:21;23.30;90.40
5476;DHT22;2760;50.000;9.194;2023-08-31T14:38:49;23.00;90.30
5476;DHT22;2760;50.000;9.194;2023-08-31T14:41:19;22.80;91.10
5476;DHT22;2760;50.000;9.194;2023-08-31T14:43:46;22.70;90.90
5476;DHT22;2760;50.000;9.194;2023-08-31T14:46:13;22.40;91.00
5476;DHT22;2760;50.000;9.194;2023-08-31T14:48:42;22.40;91.80
5476;DHT22;2760;50.000;9.194;2023-08-31T14:51:09;22.50;91.70
5476;DHT22;2760;50.000;9.194;2023-08-31T14:53:39;22.30;92.10
5476;DHT22;2760;50.000;9.194;2023-08-31T14:56:06;22.20;91.70
5476;DHT22;2760;50.000;9.194;2023-08-31T14:58:34;22.00;92.50
5476;DHT22;2760;50.000;9.194;2023-08-31T15:01:02;22.00;91.70
5476;DHT22;2760;50.000;9.194;2023-08-31T15:03:29;21.80;92.40
5476;DHT22;2760;50.000;9.194;2023-08-31T15:05:56;21.70;92.80
5476;DHT22;2760;50.000;9.194;2023-08-31T15:08:35;21.50;92.70
5476;DHT22;2760;50.000;9.194;2023-08-31T15:11:07;21.70;93.20
5476;DHT22;2760;50.000;9.194;2023-08-31T15:13:35;21.70;92.60
5476;DHT22;2760;50.000;9.194;2023-08-31T15:16:04;21.80;92.90
5476;DHT22;2760;50.000;9.194;2023-08-31T15:18:31;21.80;92.60
5476;DHT22;2760;50.000;9.194;2023-08-31T15:20:58;21.80;92.70
5476;DHT22;2760;50.000;9.194;2023-08-31T15:23:26;21.90;92.70
5476;DHT22;2760;50.000;9.194;2023-08-31T15:25:59;21.70;92.70
5476;DHT22;2760;50.000;9.194;2023-08-31T15:28:30;21.70;92.80
5476;DHT22;2760;50.000;9.194;2023-08-31T15:30:57;21.20;93.80
5476;DHT22;2760;50.000;9.194;2023-08-31T15:33:24;21.20;93.30
5476;DHT22;2760;50.000;9.194;2023-08-31T15:35:51;21.30;93.60
5476;DHT22;2760;50.000;9.194;2023-08-31T15:38:19;21.40;93.60
5476;DHT22;2760;50.000;9.194;2023-08-31T15:40:47;21.30;93.50
5476;DHT22;2760;50.000;9.194;2023-08-31T15:43:14;21.50;93.50
5476;DHT22;2760;50.000;9.194;2023-08-31T15:45:45;21.50;93.70
5476;DHT22;2760;50.000;9.194;2023-08-31T15:48:13;21.50;93.30
5476;DHT22;2760;50.000;9.194;2023-08-31T15:50:41;21.50;93.60
5476;DHT22;2760;50.000;9.194;2023-08-31T15:53:08;21.40;93.90
5476;DHT22;2760;50.000;9.194;2023-08-31T15:55:36;21.40;94.30
5476;DHT22;2760;50.000;9.194;2023-08-31T15:58:03;21.30;94.10
5476;DHT22;2760;50.000;9.194;2023-08-31T16:00:30;21.60;94.10
5476;DHT22;2760;50.000;9.194;2023-08-31T16:03:00;21.10;93.70
5476;DHT22;2760;50.000;9.194;2023-08-31T16:05:28;21.10;94.30
5476;DHT22;2760;50.000;9.194;2023-08-31T16:07:55;21.20;94.00
5476;DHT22;2760;50.000;9.194;2023-08-31T16:10:22;21.10;93.90
5476;DHT22;2760;50.000;9.194;2023-08-31T16:12:49;21.00;94.30
5476;DHT22;2760;50.000;9.194;2023-08-31T16:15:16;21.00;94.60
5476;DHT22;2760;50.000;9.194;2023-08-31T16:17:44;21.00;94.70